Time;durP1;ratioP1;P1;durP2;ratioP2;P2;SDS_P1;SDS_P2;PMS_P1;PMS_P2;Temp;Humidity;BMP_temperature;BMP_pressure;BME280_temperature;BME280_humidity;BME280_pressure;Samples;Min_cycle;Max_cycle;Signal;HPM_P1;HPM_P2
2022/06/25 00:02:09;;;;;;;7.07;6.03;;;;;;;17.87;100.00;99977.06;4927501;28;20534;-67
2022/06/25 00:07:20;;;;;;;8.15;5.53;;;;;;;18.03;100.00;100002.56;4927972;28;20043;-68
2022/06/25 00:09:47;;;;;;;6.60;5.45;;;;;;;18.04;100.00;99994.41;4925952;29;20051;-66
2022/06/25 00:12:32;;;;;;;7.25;5.18;;;;;;;18.03;100.00;99991.84;4926536;28;20095;-65
2022/06/25 00:15:04;;;;;;;7.88;4.90;;;;;;;18.03;100.00;99997.22;4931047;28;20604;-66
2022/06/25 00:17:32;;;;;;;5.93;5.05;;;;;;;18.05;100.00;100000.59;4928352;28;20131;-66
2022/06/25 00:20:01;;;;;;;8.38;5.05;;;;;;;18.01;100.00;99991.13;4932469;28;20058;-66
2022/06/25 00:22:27;;;;;;;7.60;4.57;;;;;;;17.94;100.00;99979.25;4925054;29;20106;-65
2022/06/25 00:24:54;;;;;;;7.97;4.85;;;;;;;18.01;100.00;99993.81;4924727;28;20056;-66
2022/06/25 00:27:21;;;;;;;6.00;4.82;;;;;;;17.87;100.00;99973.53;4932649;28;20456;-66
2022/06/25 00:29:48;;;;;;;8.77;4.65;;;;;;;17.87;100.00;99979.75;4930327;28;20047;-66
2022/06/25 00:32:15;;;;;;;6.00;5.05;;;;;;;17.87;100.00;99995.81;4926962;28;20047;-66
2022/06/25 00:34:42;;;;;;;7.00;4.78;;;;;;;17.74;100.00;99999.63;4926915;29;20048;-66
2022/06/25 00:37:09;;;;;;;6.72;4.78;;;;;;;17.58;100.00;100001.84;4932218;28;20069;-65
2022/06/25 00:39:37;;;;;;;8.43;4.80;;;;;;;17.50;100.00;99997.09;4930704;28;20089;-66
2022/06/25 00:42:12;;;;;;;6.90;4.80;;;;;;;17.48;100.00;100001.72;4925442;28;20071;-66
2022/06/25 00:44:39;;;;;;;5.88;4.55;;;;;;;17.50;100.00;100000.63;4922313;28;20063;-65
2022/06/25 00:47:10;;;;;;;5.18;4.60;;;;;;;17.50;100.00;100002.47;4927306;29;20385;-67
2022/06/25 00:49:37;;;;;;;6.50;4.50;;;;;;;17.48;100.00;100007.09;4930948;28;20051;-66
2022/06/25 00:52:07;;;;;;;6.72;4.05;;;;;;;17.32;100.00;99986.06;4935772;28;20054;-67
2022/06/25 00:54:36;;;;;;;5.32;4.60;;;;;;;17.52;100.00;100005.88;4922709;29;20051;-67
2022/06/25 00:57:08;;;;;;;4.90;4.50;;;;;;;17.56;100.00;100012.69;4925185;28;20083;-67
2022/06/25 00:59:44;;;;;;;5.72;4.32;;;;;;;17.57;100.00;100001.00;4922969;28;20051;-67
2022/06/25 01:02:10;;;;;;;7.15;4.43;;;;;;;17.64;100.00;100009.38;4917890;28;20057;-66
2022/06/25 01:04:38;;;;;;;4.60;3.72;;;;;;;17.61;100.00;100005.13;4931300;28;20492;-65
2022/06/25 01:07:06;;;;;;;6.18;3.97;;;;;;;17.62;100.00;100008.66;4921545;28;20075;-65
2022/06/25 01:09:33;;;;;;;7.30;4.10;;;;;;;17.58;100.00;100010.72;4925327;28;20476;-68
2022/06/25 01:12:00;;;;;;;6.32;4.15;;;;;;;17.38;100.00;99982.91;4934178;28;20051;-65
2022/06/25 01:14:27;;;;;;;4.65;4.00;;;;;;;17.51;100.00;100015.72;4931332;28;20055;-66
2022/06/25 01:16:54;;;;;;;7.88;3.97;;;;;;;17.48;100.00;100015.13;4921458;28;20078;-66
2022/06/25 01:19:21;;;;;;;8.40;4.10;;;;;;;17.45;100.00;100023.41;4927695;28;20118;-65
2022/06/25 01:21:49;;;;;;;8.30;3.97;;;;;;;17.40;100.00;100026.47;4923187;28;20426;-67
2022/06/25 01:24:15;;;;;;;6.25;4.50;;;;;;;17.31;100.00;100037.94;4929039;28;20083;-65
2022/06/25 01:26:42;;;;;;;9.43;4.80;;;;;;;17.16;100.00;100036.44;4932584;29;20425;-66
2022/06/25 01:29:09;;;;;;;7.38;5.07;;;;;;;16.91;100.00;100010.81;4934911;28;20096;-65
2022/06/25 01:31:36;;;;;;;9.23;5.18;;;;;;;16.97;100.00;100036.22;4923310;28;20527;-66
2022/06/25 01:34:04;;;;;;;8.60;4.93;;;;;;;16.87;100.00;100033.41;4931695;28;20078;-65
2022/06/25 01:36:31;;;;;;;11.88;5.28;;;;;;;16.81;100.00;100040.13;4930234;29;20055;-67
2022/06/25 01:38:57;;;;;;;8.95;5.30;;;;;;;16.75;100.00;100031.72;4932458;28;20095;-66
2022/06/25 01:41:24;;;;;;;7.55;4.95;;;;;;;16.72;100.00;100039.97;4924634;28;20579;-66
2022/06/25 01:43:50;;;;;;;8.02;5.03;;;;;;;16.67;100.00;100035.00;4926214;28;20123;-65
2022/06/25 01:46:17;;;;;;;8.25;5.05;;;;;;;16.71;100.00;100041.78;4925141;28;20563;-64
2022/06/25 01:48:44;;;;;;;9.20;5.30;;;;;;;16.66;100.00;100035.13;4928689;28;20059;-66
2022/06/25 01:51:12;;;;;;;9.80;5.45;;;;;;;16.60;100.00;100036.41;4938081;28;20508;-65
2022/06/25 01:53:39;;;;;;;6.88;4.95;;;;;;;16.55;100.00;100043.06;4939606;28;20043;-64
2022/06/25 01:56:07;;;;;;;9.93;4.93;;;;;;;16.48;100.00;100038.22;4924938;28;20148;-67
2022/06/25 01:58:35;;;;;;;7.82;5.50;;;;;;;16.43;100.00;100035.03;4929105;29;20051;-65
2022/06/25 02:01:02;;;;;;;9.13;5.50;;;;;;;16.42;100.00;100037.81;4923516;28;20576;-65
2022/06/25 02:03:29;;;;;;;6.43;5.47;;;;;;;16.40;100.00;100037.94;4924160;29;20066;-67
2022/06/25 02:05:58;;;;;;;13.70;6.88;;;;;;;16.40;100.00;100029.06;4931092;28;20078;-66
2022/06/25 02:08:30;;;;;;;8.43;6.03;;;;;;;16.38;100.00;100039.84;4911266;29;20044;-68
2022/06/25 02:10:58;;;;;;;12.55;6.40;;;;;;;16.32;100.00;100027.00;4928931;28;20143;-66
2022/06/25 02:13:25;;;;;;;9.13;6.53;;;;;;;16.33;100.00;100039.38;4923598;29;20052;-66
2022/06/25 02:15:54;;;;;;;6.55;5.78;;;;;;;16.30;100.00;100039.59;4931276;28;20055;-67
2022/06/25 02:18:21;;;;;;;7.68;5.80;;;;;;;16.21;100.00;100016.28;4921293;28;20067;-65
2022/06/25 02:20:48;;;;;;;7.05;5.57;;;;;;;16.17;100.00;100020.16;4933034;28;20044;-67
2022/06/25 02:23:16;;;;;;;7.72;6.15;;;;;;;16.29;100.00;100047.75;4924670;28;20040;-66
2022/06/25 02:25:43;;;;;;;6.72;5.65;;;;;;;16.20;100.00;100035.94;4932651;28;20079;-67
2022/06/25 02:28:16;;;;;;;11.45;5.97;;;;;;;16.24;100.00;100049.91;4920282;28;20039;-66
2022/06/25 02:30:43;;;;;;;;;;;;;;;16.30;100.00;100054.78;4931760;28;20077;-65
2022/06/25 02:33:12;;;;;;;5.78;5.28;;;;;;;16.31;100.00;100060.03;4923401;29;19923;-67
2022/06/25 02:35:39;;;;;;;7.50;5.68;;;;;;;16.36;100.00;100060.53;4934125;28;20139;-69
2022/06/25 02:38:06;;;;;;;7.55;5.80;;;;;;;16.34;100.00;100058.94;4922939;28;20056;-66
2022/06/25 02:40:33;;;;;;;10.18;6.07;;;;;;;16.30;100.00;100058.31;4932213;28;20051;-67
2022/06/25 02:43:01;;;;;;;9.63;6.10;;;;;;;16.25;100.00;100065.81;4931962;28;20134;-67
2022/06/25 02:45:28;;;;;;;9.35;5.97;;;;;;;16.25;100.00;100056.94;4931813;28;20090;-66
2022/06/25 02:47:56;;;;;;;11.18;5.93;;;;;;;16.26;100.00;100066.66;4926562;28;20510;-65
2022/06/25 02:50:25;;;;;;;9.27;6.72;;;;;;;16.25;100.00;100065.81;4930150;28;20044;-65
2022/06/25 02:52:53;;;;;;;9.90;6.13;;;;;;;16.23;100.00;100069.56;4926280;28;20059;-65
2022/06/25 02:58:54;;;;;;;7.55;6.00;;;;;;;16.21;100.00;100066.19;4932690;28;20062;-65
2022/06/25 03:00:51;;;;;;;7.82;6.55;;;;;;;16.02;100.00;100042.66;4936406;28;20047;-66
2022/06/25 03:03:18;;;;;;;7.38;6.43;;;;;;;16.16;100.00;100065.66;4919585;28;20397;-65
2022/06/25 03:05:45;;;;;;;12.55;6.75;;;;;;;16.16;100.00;100068.34;4930376;28;20075;-66
2022/06/25 03:08:11;;;;;;;10.85;7.13;;;;;;;16.13;100.00;100072.09;4933296;28;20127;-65
2022/06/25 03:10:38;;;;;;;9.80;6.75;;;;;;;16.13;100.00;100067.59;4934277;29;20051;-66
2022/06/25 03:13:05;;;;;;;14.48;7.18;;;;;;;16.17;100.00;100086.94;4928432;28;20082;-65
2022/06/25 03:15:31;;;;;;;12.50;7.35;;;;;;;16.14;100.00;100079.13;4926198;28;20071;-66
2022/06/25 03:17:59;;;;;;;11.15;7.97;;;;;;;16.11;100.00;100082.88;4920705;28;20064;-65
2022/06/25 03:20:25;;;;;;;10.90;8.65;;;;;;;16.12;100.00;100087.25;4933814;28;20050;-65
2022/06/25 03:22:52;;;;;;;11.05;8.50;;;;;;;16.12;100.00;100087.25;4921887;29;20090;-65
2022/06/25 03:25:19;;;;;;;12.93;8.18;;;;;;;16.12;100.00;100083.75;4929066;28;20052;-66
2022/06/25 03:27:45;;;;;;;13.02;7.97;;;;;;;16.13;100.00;100091.63;4933952;28;20048;-66
2022/06/25 03:30:12;;;;;;;10.45;8.13;;;;;;;16.14;100.00;100090.69;4932817;28;20095;-66
2022/06/25 03:32:39;;;;;;;9.98;8.18;;;;;;;16.16;100.00;100090.56;4926144;28;20113;-65
2022/06/25 03:35:06;;;;;;;14.57;8.40;;;;;;;16.17;100.00;100089.59;4924489;28;20075;-64
2022/06/25 03:37:32;;;;;;;11.98;7.43;;;;;;;16.16;100.00;100092.38;4931967;28;20237;-65
2022/06/25 03:40:00;;;;;;;10.50;8.40;;;;;;;16.18;100.00;100098.47;4923011;28;20067;-66
2022/06/25 03:42:26;;;;;;;11.13;8.43;;;;;;;16.06;100.00;100081.50;4924556;28;20507;-66
2022/06/25 03:44:53;;;;;;;12.40;8.20;;;;;;;16.18;100.00;100093.13;4929261;28;20170;-65
2022/06/25 03:47:19;;;;;;;9.68;8.23;;;;;;;16.23;100.00;100097.13;4932505;28;20052;-64
2022/06/25 03:49:47;;;;;;;9.25;8.18;;;;;;;16.30;100.00;100103.72;4924026;28;20416;-66
2022/06/25 03:52:13;;;;;;;11.48;8.75;;;;;;;16.29;100.00;100094.00;4933976;28;20059;-65
2022/06/25 03:54:40;;;;;;;11.45;9.07;;;;;;;16.26;100.00;100096.91;4923635;28;20047;-64
2022/06/25 03:57:07;;;;;;;11.80;9.23;;;;;;;16.26;100.00;100098.72;4933977;29;20091;-66
2022/06/25 03:59:33;;;;;;;11.75;8.52;;;;;;;16.13;100.00;100075.63;4925969;28;20523;-66
2022/06/25 04:02:00;;;;;;;13.60;10.23;;;;;;;16.37;100.00;100107.63;4933169;28;20051;-65
2022/06/25 04:04:27;;;;;;;12.40;9.45;;;;;;;16.39;100.00;100116.38;4921482;29;20043;-66
2022/06/25 04:06:54;;;;;;;13.55;8.85;;;;;;;16.43;100.00;100120.53;4923440;29;20048;-66
2022/06/25 04:09:20;;;;;;;9.05;8.10;;;;;;;16.51;100.00;100114.63;4920602;28;20047;-65
2022/06/25 04:11:47;;;;;;;13.27;9.32;;;;;;;16.64;100.00;100119.94;4935721;28;20106;-66
2022/06/25 04:14:13;;;;;;;13.63;9.18;;;;;;;16.71;100.00;100119.31;4920988;28;20048;-65
2022/06/25 04:16:40;;;;;;;12.80;9.25;;;;;;;16.68;100.00;100118.72;4936216;29;20460;-64
2022/06/25 04:19:07;;;;;;;13.05;9.40;;;;;;;16.67;100.00;100117.03;4918943;28;20048;-64
2022/06/25 04:21:33;;;;;;;10.10;8.63;;;;;;;16.69;100.00;100121.25;4930651;28;20060;-65
2022/06/25 04:24:00;;;;;;;11.25;10.15;;;;;;;16.83;100.00;100131.78;4922542;28;20501;-66
2022/06/25 04:26:27;;;;;;;14.32;11.75;;;;;;;16.90;100.00;100113.41;4937208;28;20060;-68
2022/06/25 04:29:08;;;;;;;14.05;12.02;;;;;;;17.13;100.00;100139.25;4936796;28;20123;-65
2022/06/25 04:31:37;;;;;;;15.68;12.43;;;;;;;17.07;100.00;100126.34;4927746;28;20070;-66
2022/06/25 04:34:04;;;;;;;16.20;12.90;;;;;;;17.15;100.00;100136.44;4923430;28;20066;-65
2022/06/25 04:36:31;;;;;;;13.45;11.70;;;;;;;17.05;100.00;100138.13;4930039;29;20098;-66
2022/06/25 04:38:57;;;;;;;13.32;11.75;;;;;;;17.03;100.00;100150.75;4925219;28;20043;-66
2022/06/25 04:41:24;;;;;;;12.73;11.50;;;;;;;17.05;100.00;100144.31;4935975;28;22000;-66
2022/06/25 04:43:51;;;;;;;13.35;10.35;;;;;;;16.96;100.00;100128.16;4926480;28;20054;-66
2022/06/25 04:46:18;;;;;;;12.55;10.23;;;;;;;17.16;100.00;100147.00;4926818;29;20099;-66
2022/06/25 04:48:45;;;;;;;14.40;10.50;;;;;;;17.25;100.00;100149.94;4924437;28;20103;-66
2022/06/25 04:51:11;;;;;;;12.02;10.50;;;;;;;17.25;100.00;100150.81;4928427;28;20468;-66
2022/06/25 04:53:55;;;;;;;18.38;10.45;;;;;;;17.26;100.00;100152.50;4923989;28;20708;-66
2022/06/25 04:56:22;;;;;;;13.48;10.35;;;;;;;17.22;100.00;100142.16;4931576;28;20524;-67
2022/06/25 04:58:49;;;;;;;12.90;10.40;;;;;;;17.32;100.00;100149.31;4920293;29;20043;-66
2022/06/25 05:01:16;;;;;;;11.15;10.05;;;;;;;17.47;100.00;100149.97;4935021;28;20165;-66
2022/06/25 05:03:43;;;;;;;12.27;9.65;;;;;;;17.67;100.00;100153.75;4921642;28;20066;-66
2022/06/25 05:06:10;;;;;;;11.32;9.35;;;;;;;17.79;100.00;100152.75;4916319;28;20074;-66
2022/06/25 05:08:37;;;;;;;9.90;8.90;;;;;;;17.85;100.00;100158.47;4925479;28;20051;-65
2022/06/25 05:11:03;;;;;;;9.82;8.48;;;;;;;17.96;100.00;100159.41;4922022;29;20458;-64
2022/06/25 05:13:30;;;;;;;11.63;9.55;;;;;;;17.93;100.00;100155.19;4923117;28;20056;-64
2022/06/25 05:15:57;;;;;;;11.35;9.90;;;;;;;18.13;100.00;100169.63;4931577;28;20087;-65
2022/06/25 05:18:24;;;;;;;12.50;9.20;;;;;;;18.12;100.00;100151.84;4928462;28;20044;-65
2022/06/25 05:20:51;;;;;;;10.85;9.60;;;;;;;18.14;100.00;100157.94;4928128;28;20051;-65
2022/06/25 05:23:17;;;;;;;11.10;10.00;;;;;;;18.30;100.00;100163.72;4923864;28;20114;-64
2022/06/25 05:25:44;;;;;;;10.95;9.07;;;;;;;18.41;99.81;100166.41;4932367;28;20339;-65
2022/06/25 05:28:11;;;;;;;9.80;8.90;;;;;;;18.42;98.37;100170.75;4922560;28;20079;-65
2022/06/25 05:30:37;;;;;;;11.07;9.98;;;;;;;18.39;99.05;100176.38;4935511;28;20056;-66
2022/06/25 05:33:04;;;;;;;12.52;9.45;;;;;;;18.32;99.38;100172.50;4923225;29;20066;-65
2022/06/25 05:35:31;;;;;;;12.73;10.32;;;;;;;18.38;98.66;100187.25;4925444;28;20641;-64
2022/06/25 05:38:03;;;;;;;11.85;10.57;;;;;;;18.35;98.66;100182.97;4925004;28;20051;-66
2022/06/25 05:40:30;;;;;;;11.60;10.48;;;;;;;18.19;98.31;100163.78;4927879;28;20152;-68
2022/06/25 05:42:56;;;;;;;13.65;10.40;;;;;;;18.37;98.43;100185.53;4923865;29;20071;-65
2022/06/25 05:45:23;;;;;;;12.05;9.85;;;;;;;18.39;98.22;100181.75;4928050;28;20060;-68
2022/06/25 05:47:50;;;;;;;11.30;10.20;;;;;;;18.48;97.79;100180.97;4931797;28;20219;-66
2022/06/25 05:50:18;;;;;;;11.88;9.68;;;;;;;18.52;97.02;100193.16;4920003;28;20124;-65
2022/06/25 05:52:44;;;;;;;10.07;9.07;;;;;;;18.61;97.05;100186.19;4921984;29;20051;-66
2022/06/25 05:55:12;;;;;;;8.65;7.75;;;;;;;18.69;96.24;100190.94;4923016;29;20051;-65
2022/06/25 05:57:39;;;;;;;14.48;8.77;;;;;;;18.67;96.73;100190.19;4925171;28;20808;-64
2022/06/25 06:00:08;;;;;;;8.80;7.57;;;;;;;18.67;95.86;100203.63;4926209;28;20106;-64
2022/06/25 06:02:34;;;;;;;11.70;8.20;;;;;;;18.66;96.10;100205.44;4934219;28;20138;-66
2022/06/25 06:05:02;;;;;;;10.38;7.85;;;;;;;18.75;96.94;100204.66;4918583;29;20250;-64
2022/06/25 06:07:29;;;;;;;12.80;7.32;;;;;;;18.97;96.22;100210.91;4924403;29;20105;-66
2022/06/25 06:09:57;;;;;;;11.25;7.15;;;;;;;19.14;94.22;100210.31;4929327;28;20052;-65
2022/06/25 06:12:23;;;;;;;9.25;6.65;;;;;;;19.16;91.64;100206.53;4923721;29;20047;-65
2022/06/25 06:14:50;;;;;;;8.20;7.15;;;;;;;19.05;93.07;100201.22;4907980;28;20531;-64
2022/06/25 06:17:17;;;;;;;12.95;7.55;;;;;;;19.10;94.11;100209.72;4919493;29;20072;-64
2022/06/25 06:19:44;;;;;;;10.32;6.97;;;;;;;19.34;93.59;100208.63;4918746;29;20143;-66
2022/06/25 06:22:10;;;;;;;8.95;6.22;;;;;;;19.71;88.89;100204.44;4917900;28;20079;-67
2022/06/25 06:24:43;;;;;;;7.78;7.03;;;;;;;19.66;88.01;100206.72;4910482;28;20424;-65
2022/06/25 06:27:10;;;;;;;6.93;6.32;;;;;;;19.56;88.02;100195.06;4918042;28;20202;-69
2022/06/25 06:29:37;;;;;;;7.28;6.43;;;;;;;19.72;88.17;100205.31;4911817;29;20055;-66
2022/06/25 06:32:04;;;;;;;8.85;7.20;;;;;;;19.93;86.77;100208.78;4914457;29;20064;-67
2022/06/25 06:34:31;;;;;;;9.38;7.35;;;;;;;20.07;83.07;100207.56;4917164;28;20072;-67
2022/06/25 06:36:58;;;;;;;8.55;7.65;;;;;;;19.77;84.73;100219.19;4919553;29;20079;-66
2022/06/25 06:39:24;;;;;;;8.43;7.57;;;;;;;19.44;85.83;100223.81;4915553;28;20056;-66
2022/06/25 06:41:51;;;;;;;9.00;8.05;;;;;;;19.25;87.92;100235.25;4919159;28;20062;-69
2022/06/25 06:44:18;;;;;;;8.95;7.50;;;;;;;19.17;89.53;100229.72;4913310;28;20302;-69
2022/06/25 06:46:44;;;;;;;11.02;8.45;;;;;;;19.32;89.95;100229.38;4928337;28;20456;-71
2022/06/25 06:49:11;;;;;;;9.65;7.95;;;;;;;19.77;90.81;100225.41;4931093;28;20082;-70
2022/06/25 06:51:39;;;;;;;9.00;7.00;;;;;;;20.49;85.36;100232.44;4936790;28;20107;-71
2022/06/25 06:54:05;;;;;;;10.23;6.75;;;;;;;20.97;79.95;100235.16;4930928;28;20086;-69
2022/06/25 06:56:32;;;;;;;8.52;7.55;;;;;;;21.07;77.66;100213.63;4932172;28;20047;-70
2022/06/25 06:58:59;;;;;;;7.93;7.22;;;;;;;21.35;76.02;100227.09;4930422;28;20047;-70
2022/06/25 07:01:26;;;;;;;10.18;7.60;;;;;;;21.80;73.75;100228.22;4918129;28;20088;-70
2022/06/25 07:03:53;;;;;;;10.93;9.30;;;;;;;21.95;70.56;100229.44;4934605;28;20122;-71
2022/06/25 07:06:20;;;;;;;9.02;8.18;;;;;;;21.92;70.77;100227.03;4920491;28;20075;-71
2022/06/25 07:08:46;;;;;;;9.88;7.10;;;;;;;21.57;73.12;100227.72;4923542;29;20547;-70
2022/06/25 07:11:28;;;;;;;10.80;8.00;;;;;;;21.49;74.86;100233.00;4931256;28;20055;-70
2022/06/25 07:14:00;;;;;;;8.18;7.22;;;;;;;21.58;74.66;100232.97;4923009;28;20055;-72
2022/06/25 07:16:28;;;;;;;7.70;6.90;;;;;;;21.72;73.40;100226.28;4917625;28;20124;-69
2022/06/25 07:18:56;;;;;;;9.85;7.85;;;;;;;21.64;72.75;100226.16;4940066;28;20075;-69
2022/06/25 07:21:24;;;;;;;9.27;7.97;;;;;;;21.59;73.30;100229.28;4926357;28;20045;-70
2022/06/25 07:23:51;;;;;;;9.18;7.68;;;;;;;21.55;73.71;100227.03;4919676;28;20106;-72
2022/06/25 07:26:19;;;;;;;9.00;8.00;;;;;;;21.26;74.53;100219.00;4922754;28;20062;-69
2022/06/25 07:28:46;;;;;;;9.38;8.43;;;;;;;20.91;76.13;100219.59;4925508;29;20618;-70
2022/06/25 07:31:13;;;;;;;10.70;8.32;;;;;;;20.71;77.70;100216.06;4922175;29;20076;-71
2022/06/25 07:33:39;;;;;;;9.55;8.00;;;;;;;20.95;76.02;100207.53;4935927;28;20076;-69
2022/06/25 07:36:07;;;;;;;11.57;8.57;;;;;;;20.99;75.03;100217.03;4924757;28;20135;-71
2022/06/25 07:38:34;;;;;;;8.90;8.02;;;;;;;20.96;75.59;100211.94;4935774;28;20039;-71
2022/06/25 07:41:02;;;;;;;9.55;7.95;;;;;;;20.75;76.99;100201.34;4926278;28;20044;-72
2022/06/25 07:43:29;;;;;;;8.93;7.90;;;;;;;20.80;77.14;100217.03;4921775;29;20142;-70
2022/06/25 07:45:57;;;;;;;8.70;7.90;;;;;;;20.47;78.30;100213.75;4925982;28;20052;-70
2022/06/25 07:48:24;;;;;;;9.02;8.13;;;;;;;20.49;78.31;100217.16;4932895;28;20051;-71
2022/06/25 07:53:36;;;;;;;9.00;7.63;;;;;;;21.26;75.52;100216.31;4928721;28;20118;-71
2022/06/25 07:56:03;;;;;;;8.73;6.90;;;;;;;21.70;75.87;100215.66;4924634;28;20052;-69
2022/06/25 07:58:31;;;;;;;9.57;7.15;;;;;;;22.29;71.20;100219.78;4929198;28;20070;-69
2022/06/25 08:00:57;;;;;;;7.80;7.00;;;;;;;22.28;70.92;100222.63;4919809;28;20079;-70
2022/06/25 08:03:24;;;;;;;10.98;7.25;;;;;;;21.67;72.31;100220.47;4919942;28;20051;-70
2022/06/25 08:05:53;;;;;;;8.88;7.97;;;;;;;21.30;73.46;100226.66;4925168;28;20056;-69
2022/06/25 08:08:19;;;;;;;8.45;7.65;;;;;;;21.25;75.34;100226.22;4923347;28;20074;-70
2022/06/25 08:10:46;;;;;;;10.23;6.93;;;;;;;21.63;74.42;100224.44;4927744;29;20068;-71
2022/06/25 08:13:20;;;;;;;8.00;7.13;;;;;;;21.93;71.01;100210.69;4938333;28;20047;-69
2022/06/25 08:15:47;;;;;;;7.35;6.60;;;;;;;22.00;69.50;100221.78;4920967;28;20121;-71
2022/06/25 08:18:14;;;;;;;7.18;6.40;;;;;;;21.55;71.79;100229.75;4924563;28;20106;-68
2022/06/25 08:20:41;;;;;;;8.02;7.13;;;;;;;21.19;74.48;100225.94;4924148;28;20440;-69
2022/06/25 08:23:07;;;;;;;14.57;8.85;;;;;;;21.48;73.86;100218.69;4929290;28;20064;-69
2022/06/25 08:25:35;;;;;;;12.82;9.60;;;;;;;22.06;70.27;100213.06;4925868;28;20059;-70
2022/06/25 08:28:05;;;;;;;15.63;7.57;;;;;;;22.54;68.81;100220.88;4929179;28;20059;-69
2022/06/25 08:30:33;;;;;;;7.97;7.20;;;;;;;22.82;67.29;100215.47;4920527;28;20207;-70
2022/06/25 08:33:00;;;;;;;10.40;6.75;;;;;;;22.85;66.09;100190.84;4936464;28;20063;-68
2022/06/25 08:35:27;;;;;;;6.97;6.05;;;;;;;23.00;66.68;100221.69;4935178;28;20683;-71
2022/06/25 08:37:53;;;;;;;7.57;6.88;;;;;;;22.63;66.45;100211.88;4934015;28;20126;-68
2022/06/25 08:40:20;;;;;;;7.70;6.95;;;;;;;22.32;67.97;100216.78;4925907;28;20118;-70
2022/06/25 08:42:48;;;;;;;7.50;6.80;;;;;;;22.30;68.30;100204.44;4922611;29;20596;-71
2022/06/25 08:45:17;;;;;;;9.00;7.07;;;;;;;22.67;68.24;100215.94;4922173;28;20167;-71
2022/06/25 08:47:46;;;;;;;9.13;7.70;;;;;;;22.98;66.53;100202.94;4936880;28;20577;-70
2022/06/25 08:50:16;;;;;;;8.18;7.38;;;;;;;23.18;65.59;100209.00;4934913;28;20066;-69
2022/06/25 08:52:46;;;;;;;8.73;6.80;;;;;;;22.89;67.32;100216.53;4921608;28;20043;-72
2022/06/25 08:55:23;;;;;;;9.95;7.20;;;;;;;22.68;68.03;100206.84;4923619;28;20112;-69
2022/06/25 08:57:50;;;;;;;7.80;6.20;;;;;;;22.42;69.58;100216.72;4923497;28;20044;-69
2022/06/25 09:00:16;;;;;;;6.40;5.57;;;;;;;22.71;68.38;100216.50;4926071;28;20060;-70
2022/06/25 09:02:49;;;;;;;6.45;4.93;;;;;;;23.28;64.85;100204.38;4933630;28;20225;-69
2022/06/25 09:05:16;;;;;;;9.70;5.80;;;;;;;23.71;61.49;100208.03;4916784;28;20139;-68
2022/06/25 09:07:54;;;;;;;6.25;5.63;;;;;;;23.70;62.74;100209.88;4911526;28;21144;-70
2022/06/25 09:10:24;;;;;;;5.72;5.10;;;;;;;24.11;60.68;100197.38;4918613;28;20063;-68
2022/06/25 09:12:55;;;;;;;7.43;5.60;;;;;;;24.20;60.33;100194.72;4931039;28;20405;-70
2022/06/25 09:15:25;;;;;;;5.47;4.97;;;;;;;24.62;59.21;100200.09;4922908;28;20047;-70
2022/06/25 09:17:53;;;;;;;6.13;5.20;;;;;;;25.18;57.04;100194.69;4924972;28;20059;-70
2022/06/25 09:20:26;;;;;;;6.78;5.45;;;;;;;25.44;55.54;100190.97;4919437;29;20128;-70
2022/06/25 09:22:59;;;;;;;6.35;4.65;;;;;;;25.38;54.96;100186.22;4924383;28;20106;-70
2022/06/25 09:25:29;;;;;;;4.82;4.32;;;;;;;25.25;55.81;100192.16;4924832;28;20083;-70
2022/06/25 09:27:59;;;;;;;4.88;4.35;;;;;;;25.06;56.02;100189.81;4932538;28;20043;-71
2022/06/25 09:30:29;;;;;;;7.90;4.60;;;;;;;24.74;55.97;100182.50;4923115;28;20484;-70
2022/06/25 09:32:58;;;;;;;6.70;4.88;;;;;;;24.30;56.90;100163.81;4931903;28;20050;-71
2022/06/25 09:35:37;;;;;;;6.55;4.60;;;;;;;24.23;58.88;100186.28;4933588;28;20067;-72
2022/06/25 09:38:03;;;;;;;6.25;5.38;;;;;;;23.61;61.11;100193.78;4932854;28;20079;-68
2022/06/25 09:40:31;;;;;;;6.65;5.85;;;;;;;23.24;63.15;100186.78;4924419;28;20076;-69
2022/06/25 09:42:59;;;;;;;8.27;5.88;;;;;;;22.83;63.41;100176.63;4919658;29;20868;-69
2022/06/25 09:45:26;;;;;;;5.53;5.00;;;;;;;22.81;65.74;100178.66;4918752;28;20075;-67
2022/06/25 09:47:55;;;;;;;6.97;4.90;;;;;;;23.07;63.59;100183.09;4930083;28;20047;-71
2022/06/25 09:50:22;;;;;;;7.85;5.60;;;;;;;23.29;63.31;100179.03;4933178;28;20099;-69
2022/06/25 09:52:59;;;;;;;5.30;4.55;;;;;;;23.29;62.48;100175.50;4931926;28;20559;-70
2022/06/25 09:55:30;;;;;;;6.78;4.32;;;;;;;23.42;61.19;100165.09;4926819;28;20070;-69
2022/06/25 09:57:59;;;;;;;6.10;4.70;;;;;;;23.33;60.17;100185.81;4917956;28;20658;-71
2022/06/25 10:00:26;;;;;;;6.43;4.40;;;;;;;23.25;61.03;100183.06;4920531;28;20063;-68
2022/06/25 10:02:56;;;;;;;6.47;4.00;;;;;;;23.58;59.90;100173.34;4918713;29;20470;-70
2022/06/25 10:05:29;;;;;;;;;;;;;;;23.99;58.46;100174.34;4919063;28;20071;-70
2022/06/25 10:08:01;;;;;;;6.60;4.07;;;;;;;24.31;56.77;100176.34;4934266;28;19954;-67
2022/06/25 10:10:31;;;;;;;4.35;3.95;;;;;;;24.45;58.44;100180.25;4918703;29;20039;-71
2022/06/25 10:12:57;;;;;;;5.22;3.80;;;;;;;24.72;55.63;100173.69;4929415;29;20054;-71
2022/06/25 10:15:25;;;;;;;5.13;4.43;;;;;;;24.65;57.54;100180.81;4921289;28;20112;-67
2022/06/25 10:17:52;;;;;;;5.43;4.70;;;;;;;24.22;57.48;100155.66;4923949;29;20500;-68
2022/06/25 10:20:19;;;;;;;7.40;4.68;;;;;;;24.21;58.63;100163.94;4920180;29;20138;-68
2022/06/25 10:22:49;;;;;;;6.97;4.30;;;;;;;24.04;58.93;100152.22;4925923;28;20050;-70
2022/06/25 10:25:21;;;;;;;4.13;3.80;;;;;;;24.09;58.85;100131.78;4923149;28;20563;-70
2022/06/25 10:27:50;;;;;;;4.43;3.60;;;;;;;24.47;57.20;100157.44;4927399;28;20071;-67
2022/06/25 10:30:37;;;;;;;4.45;3.70;;;;;;;24.56;55.73;100152.84;4917676;28;20060;-68
2022/06/25 10:33:05;;;;;;;5.05;3.70;;;;;;;24.45;55.88;100142.38;4916554;28;20052;-70
2022/06/25 10:35:39;;;;;;;4.95;2.65;;;;;;;24.47;55.67;100141.19;4915195;29;20065;-68
2022/06/25 10:38:18;;;;;;;7.40;3.72;;;;;;;24.40;54.14;100148.28;4922729;28;20054;-70
2022/06/25 10:43:49;;;;;;;5.25;2.97;;;;;;;24.17;55.59;100128.25;4929623;28;20075;-69
2022/06/25 10:46:36;;;;;;;4.57;2.92;;;;;;;24.25;52.95;100128.28;4919405;28;20149;-68
2022/06/25 10:49:07;;;;;;;4.22;2.92;;;;;;;24.37;52.64;100129.69;4925468;28;20051;-68
2022/06/25 10:51:42;;;;;;;5.85;3.55;;;;;;;24.44;51.30;100132.56;4933566;28;20058;-70
2022/06/25 10:54:26;;;;;;;3.60;2.90;;;;;;;24.56;51.56;100114.97;4929993;28;20504;-69
2022/06/25 10:56:58;;;;;;;3.10;2.85;;;;;;;24.93;51.87;100119.88;4915733;29;20043;-68
2022/06/25 10:59:45;;;;;;;3.47;2.50;;;;;;;25.33;49.49;100116.28;4926966;28;20067;-68
2022/06/25 11:02:20;;;;;;;8.02;3.00;;;;;;;25.55;48.98;100117.38;4931831;28;20070;-66
2022/06/25 11:04:53;;;;;;;5.13;2.53;;;;;;;25.15;49.33;100108.38;4925902;28;20075;-69
2022/06/25 11:07:22;;;;;;;3.15;2.58;;;;;;;24.75;51.10;100102.94;4927515;29;20052;-71
2022/06/25 11:09:52;;;;;;;4.75;2.97;;;;;;;24.33;52.13;100086.88;4924849;28;20500;-69
2022/06/25 11:12:18;;;;;;;3.70;2.80;;;;;;;24.24;51.79;100104.94;4922365;28;20084;-68
2022/06/25 11:15:07;;;;;;;5.28;2.20;;;;;;;24.56;51.11;100109.53;4929085;29;20067;-70
2022/06/25 11:17:35;;;;;;;3.00;2.10;;;;;;;24.85;49.04;100076.56;4933476;28;20051;-69
2022/06/25 11:20:10;;;;;;;3.72;2.30;;;;;;;25.49;48.60;100118.94;4928048;28;20048;-70
2022/06/25 11:22:47;;;;;;;3.33;2.28;;;;;;;25.85;47.43;100103.03;4939306;28;20063;-68
2022/06/25 11:30:47;;;;;;;2.78;2.28;;;;;;;25.62;48.19;100098.59;4933817;28;20491;-69
2022/06/25 11:33:15;;;;;;;4.90;2.30;;;;;;;25.82;47.77;100095.25;4933060;28;20050;-68
2022/06/25 11:35:44;;;;;;;;;;;;;;;25.92;47.47;100097.75;4928195;28;20047;-69
2022/06/25 11:38:14;;;;;;;3.25;2.13;;;;;;;25.98;46.00;100080.75;4937297;28;20017;-67
2022/06/25 11:40:41;;;;;;;4.80;2.13;;;;;;;26.07;45.73;100095.97;4929818;29;20515;-69
2022/06/25 11:43:08;;;;;;;3.47;2.20;;;;;;;26.18;45.94;100068.41;4939421;28;20103;-68